createdAt,value
2023-04-26T00:00:40.664Z,6.98
2023-04-26T00:01:40.648Z,6.97
2023-04-26T00:02:40.786Z,6.97
2023-04-26T00:03:41.059Z,6.99
2023-04-26T00:04:40.863Z,7.01
2023-04-26T00:05:40.649Z,6.99
2023-04-26T00:06:40.614Z,7.01
2023-04-26T00:07:40.592Z,6.99
2023-04-26T00:08:40.566Z,6.98
2023-04-26T00:09:40.555Z,6.97
2023-04-26T00:10:40.537Z,6.94
2023-04-26T00:11:40.564Z,6.90
2023-04-26T00:12:40.518Z,6.86
2023-04-26T00:13:40.530Z,6.83
2023-04-26T00:14:40.499Z,6.87
2023-04-26T00:15:40.495Z,6.89
2023-04-26T00:16:40.530Z,6.90
2023-04-26T00:17:40.485Z,6.90
2023-04-26T00:18:40.461Z,6.94
2023-04-26T00:19:40.451Z,6.94
2023-04-26T00:20:40.445Z,6.94
2023-04-26T00:21:40.442Z,6.91
2023-04-26T00:22:40.422Z,6.91
2023-04-26T00:23:40.403Z,6.87
2023-04-26T00:24:40.407Z,6.87
2023-04-26T00:25:40.380Z,6.84
2023-04-26T00:26:40.390Z,6.83
2023-04-26T00:27:40.364Z,6.81
2023-04-26T00:28:40.366Z,6.84
2023-04-26T00:29:40.356Z,6.84
2023-04-26T00:30:40.337Z,6.83
2023-04-26T00:31:40.425Z,6.83
2023-04-26T00:32:40.319Z,6.83
2023-04-26T00:33:40.299Z,6.80
2023-04-26T00:34:40.306Z,6.80
2023-04-26T00:35:40.274Z,6.80
2023-04-26T00:36:40.281Z,6.79
2023-04-26T00:37:40.253Z,6.79
2023-04-26T00:38:40.236Z,6.79
2023-04-26T00:39:40.226Z,6.79
2023-04-26T00:40:40.226Z,6.79
2023-04-26T00:41:40.229Z,6.76
2023-04-26T00:42:40.210Z,6.77
2023-04-26T00:43:40.191Z,6.77
2023-04-26T00:44:40.186Z,6.79
2023-04-26T00:45:40.249Z,6.79
2023-04-26T00:46:40.172Z,6.77
2023-04-26T00:47:40.159Z,6.73
2023-04-26T00:48:40.140Z,6.72
2023-04-26T00:49:40.131Z,6.69
2023-04-26T00:50:40.154Z,6.69
2023-04-26T00:51:40.115Z,6.68
2023-04-26T00:52:40.107Z,6.68
2023-04-26T00:53:40.094Z,6.68
2023-04-26T00:54:40.082Z,6.66
2023-04-26T00:55:40.157Z,6.65
2023-04-26T00:56:40.081Z,6.63
2023-04-26T00:57:40.037Z,6.61
2023-04-26T00:58:40.046Z,6.62
2023-04-26T00:59:40.022Z,6.58
2023-04-26T01:00:40.015Z,6.56
2023-04-26T01:01:40.064Z,6.53
2023-04-26T01:02:40.068Z,6.53
2023-04-26T01:03:40.181Z,6.53
2023-04-26T01:04:39.974Z,6.51
2023-04-26T01:05:39.957Z,6.51
2023-04-26T01:06:39.961Z,6.48
2023-04-26T01:07:39.977Z,6.48
2023-04-26T01:08:39.927Z,6.50
2023-04-26T01:09:39.920Z,6.50
2023-04-26T01:10:39.915Z,6.53
2023-04-26T01:11:39.904Z,6.53
2023-04-26T01:12:39.895Z,6.58
2023-04-26T01:13:39.879Z,6.53
2023-04-26T01:14:39.899Z,6.54
2023-04-26T01:15:39.844Z,6.54
2023-04-26T01:16:39.872Z,6.54
2023-04-26T01:17:39.946Z,6.51
2023-04-26T01:18:39.833Z,6.50
2023-04-26T01:19:39.805Z,6.51
2023-04-26T01:20:39.837Z,6.50
2023-04-26T01:21:39.802Z,6.47
2023-04-26T01:22:39.777Z,6.44
2023-04-26T01:23:39.764Z,6.44
2023-04-26T01:24:39.763Z,6.44
2023-04-26T01:25:39.747Z,6.41
2023-04-26T01:26:39.784Z,6.40
2023-04-26T01:27:39.729Z,6.38
2023-04-26T01:28:39.715Z,6.38
2023-04-26T01:29:39.714Z,6.35
2023-04-26T01:30:39.762Z,6.33
2023-04-26T01:31:39.699Z,6.33
2023-04-26T01:32:39.731Z,6.33
2023-04-26T01:33:39.666Z,6.29
2023-04-26T01:34:39.658Z,6.29
2023-04-26T01:35:39.655Z,6.29
2023-04-26T01:36:39.655Z,6.30
2023-04-26T01:37:39.620Z,6.29
2023-04-26T01:38:39.607Z,6.28
2023-04-26T01:39:39.597Z,6.28
2023-04-26T01:40:39.593Z,6.29
2023-04-26T01:41:39.598Z,6.29
2023-04-26T01:42:39.573Z,6.26
2023-04-26T01:43:39.554Z,6.29
2023-04-26T01:44:39.545Z,6.26
2023-04-26T01:45:39.529Z,6.25
2023-04-26T01:46:39.628Z,6.26
2023-04-26T01:47:39.550Z,6.25
2023-04-26T01:48:39.499Z,6.22
2023-04-26T01:49:39.489Z,6.26
2023-04-26T01:50:39.481Z,6.28
2023-04-26T01:51:39.478Z,6.26
2023-04-26T01:52:39.466Z,6.28
2023-04-26T01:53:39.446Z,6.28
2023-04-26T01:54:39.442Z,6.28
2023-04-26T01:55:39.424Z,6.26
2023-04-26T01:56:39.434Z,6.25
2023-04-26T01:57:39.402Z,6.22
2023-04-26T01:58:39.398Z,6.19
2023-04-26T01:59:39.387Z,6.18
2023-04-26T02:00:39.382Z,6.14
2023-04-26T02:01:39.421Z,6.10
2023-04-26T02:02:39.570Z,6.09
2023-04-26T02:03:39.382Z,6.06
2023-04-26T02:04:39.392Z,6.06
2023-04-26T02:05:39.321Z,6.01
2023-04-26T02:06:39.331Z,6.01
2023-04-26T02:07:39.298Z,5.95
2023-04-26T02:08:39.288Z,5.95
2023-04-26T02:09:39.273Z,5.91
2023-04-26T02:10:39.291Z,5.85
2023-04-26T02:11:39.269Z,5.78
2023-04-26T02:12:39.250Z,5.78
2023-04-26T02:13:39.244Z,5.77
2023-04-26T02:14:39.283Z,5.74
2023-04-26T02:15:39.340Z,5.74
2023-04-26T02:16:39.267Z,5.73
2023-04-26T02:17:39.225Z,5.67
2023-04-26T02:18:39.205Z,5.64
2023-04-26T02:19:39.170Z,5.59
2023-04-26T02:20:39.167Z,5.59
2023-04-26T02:21:39.161Z,5.57
2023-04-26T02:22:39.153Z,5.57
2023-04-26T02:23:39.138Z,5.59
2023-04-26T02:24:39.183Z,5.59
2023-04-26T02:25:39.113Z,5.57
2023-04-26T02:26:39.113Z,5.60
2023-04-26T02:27:39.088Z,5.63
2023-04-26T02:28:39.095Z,5.63
2023-04-26T02:29:44.383Z,5.55
2023-04-26T02:30:39.066Z,5.52
2023-04-26T02:31:39.110Z,5.46
2023-04-26T02:32:39.088Z,5.41
2023-04-26T02:33:39.069Z,5.38
2023-04-26T02:34:39.045Z,5.34
2023-04-26T02:35:39.018Z,5.34
2023-04-26T02:36:39.013Z,5.32
2023-04-26T02:37:38.986Z,5.31
2023-04-26T02:38:38.998Z,5.31
2023-04-26T02:39:38.983Z,5.30
2023-04-26T02:40:38.964Z,5.31
2023-04-26T02:41:38.968Z,5.31
2023-04-26T02:42:38.941Z,5.34
2023-04-26T02:43:38.927Z,5.35
2023-04-26T02:44:38.948Z,5.35
2023-04-26T02:45:38.916Z,5.38
2023-04-26T02:46:38.917Z,5.40
2023-04-26T02:47:38.946Z,5.37
2023-04-26T02:48:38.905Z,5.34
2023-04-26T02:49:38.856Z,5.27
2023-04-26T02:50:38.861Z,5.25
2023-04-26T02:51:38.847Z,5.25
2023-04-26T02:52:38.826Z,5.25
2023-04-26T02:53:38.813Z,5.25
2023-04-26T02:54:38.831Z,5.27
2023-04-26T02:55:38.804Z,5.30
2023-04-26T02:56:38.798Z,5.32
2023-04-26T02:57:38.774Z,5.35
2023-04-26T02:58:38.769Z,5.40
2023-04-26T02:59:38.756Z,5.46
2023-04-26T03:00:38.780Z,5.45
2023-04-26T03:01:38.869Z,5.46
2023-04-26T03:02:38.931Z,5.48
2023-04-26T03:03:38.778Z,5.48
2023-04-26T03:04:38.723Z,5.50
2023-04-26T03:05:38.689Z,5.50
2023-04-26T03:06:38.698Z,5.49
2023-04-26T03:07:38.668Z,5.48
2023-04-26T03:08:38.677Z,5.49
2023-04-26T03:09:38.648Z,5.49
2023-04-26T03:10:38.641Z,5.43
2023-04-26T03:11:38.638Z,5.38
2023-04-26T03:12:38.652Z,5.38
2023-04-26T03:13:38.609Z,5.41
2023-04-26T03:14:38.622Z,5.43
2023-04-26T03:15:38.607Z,5.45
2023-04-26T03:16:38.623Z,5.48
2023-04-26T03:17:38.597Z,5.46
2023-04-26T03:18:38.584Z,5.46
2023-04-26T03:19:38.577Z,5.46
2023-04-26T03:20:38.562Z,5.48
2023-04-26T03:21:38.560Z,5.48
2023-04-26T03:22:38.517Z,5.46
2023-04-26T03:23:38.500Z,5.40
2023-04-26T03:24:38.505Z,5.35
2023-04-26T03:25:38.518Z,5.25
2023-04-26T03:26:38.486Z,5.20
2023-04-26T03:27:38.458Z,5.25
2023-04-26T03:28:38.460Z,5.28
2023-04-26T03:29:38.451Z,5.30
2023-04-26T03:30:38.440Z,5.32
2023-04-26T03:31:38.493Z,5.31
2023-04-26T03:32:38.467Z,5.32
2023-04-26T03:33:38.416Z,5.28
2023-04-26T03:34:38.393Z,5.25
2023-04-26T03:35:38.389Z,5.27
2023-04-26T03:36:38.378Z,5.25
2023-04-26T03:37:38.299Z,5.28
2023-04-26T03:38:38.302Z,5.30
2023-04-26T03:39:38.334Z,5.28
2023-04-26T03:40:38.271Z,5.25
2023-04-26T03:41:38.282Z,5.20
2023-04-26T03:42:38.251Z,5.17
2023-04-26T03:43:38.243Z,5.13
2023-04-26T03:44:38.237Z,5.13
2023-04-26T03:45:38.322Z,5.09
2023-04-26T03:46:38.244Z,5.05
2023-04-26T03:47:38.235Z,4.98
2023-04-26T03:48:38.194Z,4.98
2023-04-26T03:49:38.187Z,4.98
2023-04-26T03:50:38.186Z,4.98
2023-04-26T03:51:38.166Z,4.98
2023-04-26T03:52:38.163Z,4.92
2023-04-26T03:53:38.137Z,4.88
2023-04-26T03:54:38.130Z,4.86
2023-04-26T03:55:38.131Z,4.80
2023-04-26T03:56:38.134Z,4.75
2023-04-26T03:57:38.098Z,4.73
2023-04-26T03:58:38.105Z,4.73
2023-04-26T03:59:38.075Z,4.72
2023-04-26T04:00:38.090Z,4.72
2023-04-26T04:01:38.105Z,4.73
2023-04-26T04:02:38.102Z,4.75
2023-04-26T04:03:40.696Z,4.73
2023-04-26T04:04:38.115Z,4.69
2023-04-26T04:05:38.209Z,4.64
2023-04-26T04:06:38.032Z,4.62
2023-04-26T04:07:37.990Z,4.62
2023-04-26T04:08:37.984Z,4.58
2023-04-26T04:09:38.011Z,4.55
2023-04-26T04:10:37.965Z,4.52
2023-04-26T04:11:37.968Z,4.52
2023-04-26T04:12:37.968Z,4.55
2023-04-26T04:13:37.932Z,4.57
2023-04-26T04:14:37.926Z,4.59
2023-04-26T04:15:37.920Z,4.61
2023-04-26T04:16:37.925Z,4.59
2023-04-26T04:17:38.821Z,4.58
2023-04-26T04:18:37.901Z,4.54
2023-04-26T04:19:37.878Z,4.52
2023-04-26T04:20:37.942Z,4.51
2023-04-26T04:21:37.879Z,4.55
2023-04-26T04:22:37.840Z,4.54
2023-04-26T04:23:37.848Z,4.57
2023-04-26T04:24:37.900Z,4.58
2023-04-26T04:25:37.836Z,4.59
2023-04-26T04:26:37.841Z,4.64
2023-04-26T04:27:37.811Z,4.69
2023-04-26T04:28:37.793Z,4.65
2023-04-26T04:29:37.767Z,4.62
2023-04-26T04:30:37.812Z,4.65
2023-04-26T04:31:37.803Z,4.67
2023-04-26T04:32:37.808Z,4.70
2023-04-26T04:33:37.739Z,4.79
2023-04-26T04:34:37.709Z,4.86
2023-04-26T04:35:37.701Z,4.95
2023-04-26T04:36:37.705Z,5.02
2023-04-26T04:37:37.750Z,5.09
2023-04-26T04:38:37.673Z,5.19
2023-04-26T04:39:37.654Z,5.23
2023-04-26T04:40:37.677Z,5.25
2023-04-26T04:41:37.659Z,5.23
2023-04-26T04:42:37.645Z,5.20
2023-04-26T04:43:37.622Z,5.25
2023-04-26T04:44:37.622Z,5.28
2023-04-26T04:45:37.590Z,5.28
2023-04-26T04:46:37.770Z,5.23
2023-04-26T04:47:37.625Z,5.19
2023-04-26T04:48:37.560Z,5.56
2023-04-26T04:49:37.547Z,6.03
2023-04-26T04:50:37.544Z,6.13
2023-04-26T04:51:37.594Z,6.58
2023-04-26T04:52:37.566Z,7.16
2023-04-26T04:53:37.522Z,7.53
2023-04-26T04:54:37.524Z,7.97
2023-04-26T04:55:37.489Z,8.39
2023-04-26T04:56:37.493Z,8.33
2023-04-26T04:57:37.473Z,8.26
2023-04-26T04:58:37.453Z,7.71
2023-04-26T04:59:37.452Z,7.27
2023-04-26T05:00:37.429Z,6.99
2023-04-26T05:01:37.456Z,6.66
2023-04-26T05:02:37.650Z,6.36
2023-04-26T05:03:37.473Z,6.19
2023-04-26T05:04:37.589Z,6.14
2023-04-26T05:05:37.420Z,6.03
2023-04-26T05:06:37.391Z,5.96
2023-04-26T05:07:37.377Z,5.95
2023-04-26T05:08:37.351Z,6.00
2023-04-26T05:09:37.369Z,6.01
2023-04-26T05:10:37.346Z,6.00
2023-04-26T05:11:37.341Z,6.01
2023-04-26T05:12:37.318Z,6.06
2023-04-26T05:13:37.317Z,6.13
2023-04-26T05:14:37.290Z,6.22
2023-04-26T05:15:37.301Z,6.30
2023-04-26T05:16:37.337Z,6.35
2023-04-26T05:17:37.331Z,6.38
2023-04-26T05:18:37.256Z,6.36
2023-04-26T05:19:37.286Z,6.33
2023-04-26T05:20:37.249Z,6.33
2023-04-26T05:21:37.261Z,6.40
2023-04-26T05:22:37.200Z,6.46
2023-04-26T05:23:37.219Z,6.59
2023-04-26T05:24:37.186Z,6.80
2023-04-26T05:25:37.182Z,6.90
2023-04-26T05:26:37.167Z,6.95
2023-04-26T05:27:37.161Z,7.17
2023-04-26T05:28:37.138Z,7.31
2023-04-26T05:29:37.141Z,7.63
2023-04-26T05:30:37.153Z,7.56
2023-04-26T05:31:37.164Z,7.35
2023-04-26T05:32:37.138Z,7.19
2023-04-26T05:33:37.094Z,7.09
2023-04-26T05:34:37.093Z,6.99
2023-04-26T05:35:37.094Z,6.94
2023-04-26T05:36:37.095Z,6.91
2023-04-26T05:37:37.060Z,6.94
2023-04-26T05:38:37.063Z,6.99
2023-04-26T05:39:37.033Z,7.07
2023-04-26T05:40:37.025Z,7.17
2023-04-26T05:41:37.038Z,7.34
2023-04-26T05:42:37.087Z,7.49
2023-04-26T05:43:36.990Z,7.60
2023-04-26T05:44:36.976Z,7.66
2023-04-26T05:45:37.036Z,7.71
2023-04-26T05:46:37.016Z,7.74
2023-04-26T05:47:37.018Z,7.69
2023-04-26T05:48:37.025Z,7.74
2023-04-26T05:49:36.928Z,7.72
2023-04-26T05:50:38.924Z,7.71
2023-04-26T05:51:36.928Z,7.77
2023-04-26T05:52:36.915Z,7.81
2023-04-26T05:53:37.019Z,7.79
2023-04-26T05:54:36.918Z,7.74
2023-04-26T05:55:36.920Z,7.67
2023-04-26T05:56:36.860Z,7.62
2023-04-26T05:57:36.964Z,7.55
2023-04-26T05:58:36.832Z,7.53
2023-04-26T05:59:36.871Z,7.67
2023-04-26T06:00:36.811Z,7.87
2023-04-26T06:01:36.850Z,7.94
2023-04-26T06:02:36.878Z,8.28
2023-04-26T06:03:36.922Z,9.04
2023-04-26T06:04:36.992Z,9.40
2023-04-26T06:05:36.866Z,11.13
2023-04-26T06:06:36.761Z,10.76
2023-04-26T06:07:36.736Z,10.47
2023-04-26T06:08:36.721Z,10.15
2023-04-26T06:09:36.712Z,9.94
2023-04-26T06:10:36.702Z,10.53
2023-04-26T06:11:36.728Z,11.10
2023-04-26T06:12:36.741Z,10.84
2023-04-26T06:13:36.744Z,10.65
2023-04-26T06:14:36.667Z,10.34
2023-04-26T06:15:36.669Z,10.52
2023-04-26T06:16:36.690Z,10.95
2023-04-26T06:17:36.686Z,11.47
2023-04-26T06:18:36.660Z,11.85
2023-04-26T06:19:36.630Z,11.50
2023-04-26T06:20:36.623Z,11.03
2023-04-26T06:21:36.645Z,12.29
2023-04-26T06:22:36.589Z,12.89
2023-04-26T06:23:36.582Z,12.78
2023-04-26T06:24:36.570Z,13.07
2023-04-26T06:25:36.565Z,13.02
2023-04-26T06:26:36.571Z,12.06
2023-04-26T06:27:36.547Z,11.53
2023-04-26T06:28:36.536Z,11.17
2023-04-26T06:29:36.514Z,10.63
2023-04-26T06:30:36.572Z,10.10
2023-04-26T06:31:36.529Z,9.60
2023-04-26T06:32:36.533Z,9.23
2023-04-26T06:33:37.322Z,8.83
2023-04-26T06:34:36.465Z,8.60
2023-04-26T06:35:36.506Z,9.81
2023-04-26T06:36:36.870Z,11.53
2023-04-26T06:37:36.915Z,11.83
2023-04-26T06:38:36.420Z,12.77
2023-04-26T06:39:36.419Z,13.22
2023-04-26T06:40:36.417Z,14.01
2023-04-26T06:41:36.405Z,13.40
2023-04-26T06:42:36.399Z,12.54
2023-04-26T06:43:36.373Z,11.68
2023-04-26T06:44:36.357Z,10.98
2023-04-26T06:45:36.389Z,10.52
2023-04-26T06:46:36.367Z,10.07
2023-04-26T06:47:36.386Z,10.14
2023-04-26T06:48:36.314Z,10.73
2023-04-26T06:49:36.342Z,12.37
2023-04-26T06:50:36.394Z,13.25
2023-04-26T06:51:36.353Z,14.13
2023-04-26T06:52:36.347Z,14.69
2023-04-26T06:53:36.321Z,14.38
2023-04-26T06:54:53.662Z,14.46
2023-04-26T06:55:36.286Z,14.56
2023-04-26T06:56:36.245Z,14.75
2023-04-26T06:57:36.483Z,14.84
2023-04-26T06:58:36.580Z,14.17
2023-04-26T06:59:36.244Z,14.13
2023-04-26T07:00:36.477Z,14.24
2023-04-26T07:01:36.249Z,14.09
2023-04-26T07:02:36.355Z,13.61
2023-04-26T07:03:36.388Z,13.21
2023-04-26T07:04:36.361Z,12.69
2023-04-26T07:05:36.154Z,12.26
2023-04-26T07:06:36.131Z,11.94
2023-04-26T07:07:36.134Z,11.96
2023-04-26T07:08:36.131Z,11.75
2023-04-26T07:09:36.106Z,11.65
2023-04-26T07:10:36.226Z,11.54
2023-04-26T07:11:36.097Z,11.56
2023-04-26T07:12:36.108Z,11.29
2023-04-26T07:13:36.076Z,11.21
2023-04-26T07:14:37.883Z,10.94
2023-04-26T07:15:36.042Z,11.03
2023-04-26T07:16:36.138Z,10.89
2023-04-26T07:17:36.034Z,10.86
2023-04-26T07:18:36.015Z,10.88
2023-04-26T07:19:36.012Z,10.80
2023-04-26T07:20:36.030Z,10.47
2023-04-26T07:21:35.986Z,10.30
2023-04-26T07:22:36.044Z,10.43
2023-04-26T07:23:35.954Z,10.37
2023-04-26T07:24:35.946Z,10.26
2023-04-26T07:25:35.939Z,10.56
2023-04-26T07:26:35.943Z,10.47
2023-04-26T07:27:35.916Z,10.09
2023-04-26T07:28:36.010Z,10.07
2023-04-26T07:29:35.888Z,10.36
2023-04-26T07:30:35.898Z,10.59
2023-04-26T07:31:35.897Z,10.62
2023-04-26T07:32:35.943Z,10.70
2023-04-26T07:33:35.980Z,10.47
2023-04-26T07:34:35.875Z,10.34
2023-04-26T07:35:35.849Z,10.25
2023-04-26T07:36:35.849Z,10.28
2023-04-26T07:37:35.865Z,10.30
2023-04-26T07:38:35.814Z,10.70
2023-04-26T07:39:35.811Z,10.77
2023-04-26T07:40:35.806Z,10.96
2023-04-26T07:41:35.804Z,10.92
2023-04-26T07:42:35.757Z,11.06
2023-04-26T07:43:35.763Z,11.07
2023-04-26T07:44:35.759Z,11.03
2023-04-26T07:45:35.764Z,11.03
2023-04-26T07:46:35.738Z,10.94
2023-04-26T07:47:35.776Z,10.62
2023-04-26T07:48:35.726Z,10.36
2023-04-26T07:49:35.681Z,10.10
2023-04-26T07:50:35.688Z,9.99
2023-04-26T07:51:35.714Z,9.85
2023-04-26T07:52:35.659Z,9.82
2023-04-26T07:53:35.643Z,9.76
2023-04-26T07:54:35.651Z,9.73
2023-04-26T07:55:35.625Z,9.81
2023-04-26T07:56:35.639Z,9.86
2023-04-26T07:57:35.601Z,9.93
2023-04-26T07:58:35.596Z,10.15
2023-04-26T07:59:35.580Z,10.55
2023-04-26T08:00:35.574Z,10.76
2023-04-26T08:01:35.602Z,11.07
2023-04-26T08:02:44.429Z,11.27
2023-04-26T08:03:35.789Z,11.17
2023-04-26T08:04:35.819Z,11.07
2023-04-26T08:05:35.812Z,11.07
2023-04-26T08:06:35.548Z,10.88
2023-04-26T08:07:35.512Z,10.89
2023-04-26T08:08:35.498Z,10.92
2023-04-26T08:09:35.480Z,10.99
2023-04-26T08:10:35.481Z,11.07
2023-04-26T08:11:35.529Z,11.11
2023-04-26T08:12:35.473Z,10.99
2023-04-26T08:13:35.472Z,11.14
2023-04-26T08:14:35.456Z,11.31
2023-04-26T08:15:35.417Z,11.41
2023-04-26T08:16:35.496Z,11.53
2023-04-26T08:17:35.436Z,11.46
2023-04-26T08:18:35.406Z,11.43
2023-04-26T08:19:35.377Z,11.52
2023-04-26T08:20:35.370Z,11.50
2023-04-26T08:21:35.384Z,11.35
2023-04-26T08:22:35.371Z,11.41
2023-04-26T08:23:35.331Z,11.27
2023-04-26T08:24:35.354Z,11.35
2023-04-26T08:25:35.331Z,11.31
2023-04-26T08:26:35.317Z,11.31
2023-04-26T08:27:35.303Z,11.31
2023-04-26T08:28:35.282Z,11.34
2023-04-26T08:29:35.284Z,11.36
2023-04-26T08:30:35.347Z,11.32
2023-04-26T08:31:35.354Z,11.25
2023-04-26T08:32:35.312Z,11.24
2023-04-26T08:33:35.273Z,10.96
2023-04-26T08:34:35.232Z,10.74
2023-04-26T08:35:35.207Z,10.53
2023-04-26T08:36:35.212Z,10.33
2023-04-26T08:37:35.187Z,10.30
2023-04-26T08:38:35.204Z,10.33
2023-04-26T08:39:35.188Z,10.39
2023-04-26T08:40:35.171Z,10.37
2023-04-26T08:41:35.158Z,10.51
2023-04-26T08:42:36.938Z,10.63
2023-04-26T08:43:35.126Z,10.68
2023-04-26T08:44:35.137Z,10.78
2023-04-26T08:45:35.117Z,10.86
2023-04-26T08:46:35.171Z,10.95
2023-04-26T08:47:35.137Z,10.94
2023-04-26T08:48:35.073Z,10.83
2023-04-26T08:49:35.064Z,10.81
2023-04-26T08:50:35.060Z,10.71
2023-04-26T08:51:35.054Z,10.51
2023-04-26T08:52:35.041Z,10.32
2023-04-26T08:53:35.060Z,10.04
2023-04-26T08:54:35.016Z,9.96
2023-04-26T08:55:35.005Z,9.79
2023-04-26T08:56:35.007Z,9.73
2023-04-26T08:57:34.978Z,9.60
2023-04-26T08:58:34.971Z,9.58
2023-04-26T08:59:34.974Z,9.61
2023-04-26T09:00:34.959Z,9.61
2023-04-26T09:01:34.993Z,9.64
2023-04-26T09:02:35.149Z,9.68
2023-04-26T09:03:34.984Z,9.67
2023-04-26T09:04:35.025Z,9.66
2023-04-26T09:05:34.907Z,9.63
2023-04-26T09:06:34.911Z,9.68
2023-04-26T09:07:34.876Z,9.71
2023-04-26T09:08:34.872Z,9.75
2023-04-26T09:09:34.859Z,9.73
2023-04-26T09:10:34.855Z,9.82
2023-04-26T09:11:34.847Z,9.94
2023-04-26T09:12:34.836Z,10.06
2023-04-26T09:13:34.814Z,10.22
2023-04-26T09:14:34.823Z,10.28
2023-04-26T09:15:34.841Z,10.42
2023-04-26T09:16:34.840Z,10.52
2023-04-26T09:17:34.808Z,10.52
2023-04-26T09:18:34.788Z,10.47
2023-04-26T09:19:34.752Z,10.39
2023-04-26T09:20:34.745Z,10.25
2023-04-26T09:21:34.813Z,10.30
2023-04-26T09:22:34.831Z,10.39
2023-04-26T09:23:34.744Z,10.56
2023-04-26T09:24:34.706Z,10.77
2023-04-26T09:25:34.710Z,11.02
2023-04-26T09:26:34.747Z,11.36
2023-04-26T09:27:34.678Z,11.64
2023-04-26T09:28:34.663Z,12.01
2023-04-26T09:29:34.644Z,12.12
2023-04-26T09:30:34.638Z,12.12
2023-04-26T09:31:34.683Z,12.23
2023-04-26T09:32:34.634Z,12.19
2023-04-26T09:33:34.618Z,12.33
2023-04-26T09:34:34.604Z,12.57
2023-04-26T09:35:34.588Z,12.42
2023-04-26T09:36:34.593Z,12.08
2023-04-26T09:37:34.634Z,11.83
2023-04-26T09:38:34.558Z,11.96
2023-04-26T09:39:34.556Z,12.15
2023-04-26T09:40:34.537Z,11.85
2023-04-26T09:41:34.535Z,11.77
2023-04-26T09:42:34.542Z,11.99
2023-04-26T09:43:35.856Z,11.90
2023-04-26T09:44:34.498Z,11.83
2023-04-26T09:45:34.478Z,11.87
2023-04-26T09:46:34.510Z,11.96
2023-04-26T09:47:34.479Z,12.02
2023-04-26T09:48:34.494Z,12.05
2023-04-26T09:49:34.443Z,12.01
2023-04-26T09:50:34.433Z,11.77
2023-04-26T09:51:34.429Z,11.67
2023-04-26T09:52:34.409Z,11.53
2023-04-26T09:53:34.428Z,11.39
2023-04-26T09:54:34.417Z,11.03
2023-04-26T09:55:35.878Z,10.92
2023-04-26T09:56:34.388Z,10.71
2023-04-26T09:57:34.355Z,10.66
2023-04-26T09:58:34.382Z,10.62
2023-04-26T09:59:34.368Z,10.56
2023-04-26T10:00:34.429Z,10.60
2023-04-26T10:01:34.434Z,10.55
2023-04-26T10:02:34.448Z,10.59
2023-04-26T10:03:34.471Z,10.62
2023-04-26T10:04:34.343Z,10.73
2023-04-26T10:05:34.301Z,10.92
2023-04-26T10:06:34.372Z,10.88
2023-04-26T10:07:34.284Z,10.89
2023-04-26T10:08:34.252Z,10.98
2023-04-26T10:09:34.271Z,11.02
2023-04-26T10:10:34.213Z,11.09
2023-04-26T10:11:34.214Z,11.19
2023-04-26T10:12:34.202Z,11.21
2023-04-26T10:13:34.186Z,11.32
2023-04-26T10:14:34.180Z,11.38
2023-04-26T10:15:34.163Z,11.39
2023-04-26T10:16:34.242Z,11.34
2023-04-26T10:17:34.171Z,11.44
2023-04-26T10:18:34.161Z,11.59
2023-04-26T10:19:34.141Z,11.56
2023-04-26T10:20:34.126Z,11.65
2023-04-26T10:21:34.113Z,11.52
2023-04-26T10:22:34.141Z,11.59
2023-04-26T10:23:34.088Z,11.68
2023-04-26T10:24:34.096Z,11.83
2023-04-26T10:25:34.064Z,11.94
2023-04-26T10:26:34.073Z,12.02
2023-04-26T10:27:34.045Z,12.08
2023-04-26T10:28:34.035Z,11.96
2023-04-26T10:29:34.021Z,11.99
2023-04-26T10:30:34.073Z,11.89
2023-04-26T10:31:34.033Z,11.96
2023-04-26T10:32:33.997Z,11.85
2023-04-26T10:33:34.025Z,11.70
2023-04-26T10:34:33.993Z,11.71
2023-04-26T10:35:33.959Z,11.53
2023-04-26T10:36:33.962Z,11.28
2023-04-26T10:37:33.963Z,11.09
2023-04-26T10:38:33.934Z,11.14
2023-04-26T10:39:33.938Z,11.34
2023-04-26T10:40:33.931Z,11.57
2023-04-26T10:41:33.917Z,11.85
2023-04-26T10:42:33.906Z,11.93
2023-04-26T10:43:33.897Z,11.89
2023-04-26T10:44:33.875Z,11.89
2023-04-26T10:45:33.865Z,11.97
2023-04-26T10:46:33.999Z,12.06
2023-04-26T10:47:33.885Z,12.13
2023-04-26T10:48:33.843Z,12.19
2023-04-26T10:49:33.829Z,12.23
2023-04-26T10:50:33.810Z,12.16
2023-04-26T10:51:33.809Z,11.90
2023-04-26T10:52:33.805Z,11.68
2023-04-26T10:53:33.788Z,11.75
2023-04-26T10:54:33.772Z,11.77
2023-04-26T10:55:33.752Z,11.75
2023-04-26T10:56:33.778Z,11.82
2023-04-26T10:57:33.741Z,11.93
2023-04-26T10:58:33.748Z,12.02
2023-04-26T10:59:47.284Z,12.12
2023-04-26T11:00:33.735Z,12.20
2023-04-26T11:01:33.736Z,12.24
2023-04-26T11:02:33.736Z,12.23
2023-04-26T11:03:33.914Z,12.11
2023-04-26T11:04:33.676Z,12.05
2023-04-26T11:05:33.655Z,11.93
2023-04-26T11:06:33.664Z,11.86
2023-04-26T11:07:33.632Z,11.80
2023-04-26T11:08:33.625Z,11.86
2023-04-26T11:09:33.613Z,11.86
2023-04-26T11:10:35.700Z,11.87
2023-04-26T11:11:33.597Z,11.97
2023-04-26T11:12:33.592Z,12.12
2023-04-26T11:13:33.563Z,12.38
2023-04-26T11:14:33.561Z,12.57
2023-04-26T11:15:33.578Z,12.64
2023-04-26T11:16:33.598Z,12.70
2023-04-26T11:17:33.584Z,12.75
2023-04-26T11:18:33.526Z,12.79
2023-04-26T11:19:33.509Z,12.79
2023-04-26T11:20:33.500Z,12.89
2023-04-26T11:21:33.498Z,13.02
2023-04-26T11:22:33.483Z,12.99
2023-04-26T11:23:33.475Z,12.92
2023-04-26T11:24:33.460Z,12.81
2023-04-26T11:25:33.446Z,12.70
2023-04-26T11:26:33.447Z,12.66
2023-04-26T11:27:33.427Z,12.64
2023-04-26T11:28:34.478Z,12.75
2023-04-26T11:29:33.403Z,12.67
2023-04-26T11:30:33.412Z,12.52
2023-04-26T11:31:33.455Z,12.51
2023-04-26T11:32:33.383Z,12.56
2023-04-26T11:33:33.369Z,12.42
2023-04-26T11:34:33.353Z,12.41
2023-04-26T11:35:33.357Z,12.45
2023-04-26T11:36:33.349Z,12.39
2023-04-26T11:37:33.320Z,12.23
2023-04-26T11:38:33.358Z,12.21
2023-04-26T11:39:33.306Z,12.30
2023-04-26T11:40:33.301Z,12.39
2023-04-26T11:41:33.291Z,12.44
2023-04-26T11:42:33.268Z,12.48
2023-04-26T11:43:33.304Z,12.56
2023-04-26T11:44:33.243Z,12.31
2023-04-26T11:45:33.254Z,12.31
2023-04-26T11:46:33.256Z,12.46
2023-04-26T11:47:33.219Z,12.38
2023-04-26T11:48:33.204Z,12.56
2023-04-26T11:49:33.213Z,12.70
2023-04-26T11:50:33.189Z,12.93
2023-04-26T11:51:33.201Z,13.09
2023-04-26T11:52:33.163Z,13.09
2023-04-26T11:53:33.160Z,13.12
2023-04-26T11:54:33.152Z,13.36
2023-04-26T11:55:33.149Z,13.37
2023-04-26T11:56:33.133Z,13.43
2023-04-26T11:57:33.124Z,13.59
2023-04-26T11:58:33.101Z,13.62
2023-04-26T11:59:33.102Z,13.84
2023-04-26T12:00:33.085Z,13.84
2023-04-26T12:01:33.129Z,13.73
2023-04-26T12:02:33.206Z,13.70
2023-04-26T12:03:33.292Z,13.81
2023-04-26T12:04:33.165Z,13.81
2023-04-26T12:05:33.051Z,13.80
2023-04-26T12:06:33.100Z,13.76
2023-04-26T12:07:33.016Z,13.69
2023-04-26T12:08:32.999Z,13.71
2023-04-26T12:09:32.988Z,13.74
2023-04-26T12:10:32.972Z,13.80
2023-04-26T12:11:33.014Z,13.74
2023-04-26T12:12:32.959Z,13.59
2023-04-26T12:13:32.976Z,13.51
2023-04-26T12:14:32.934Z,13.62
2023-04-26T12:15:32.941Z,13.69
2023-04-26T12:16:32.941Z,13.62
2023-04-26T12:17:33.022Z,13.55
2023-04-26T12:18:32.907Z,13.49
2023-04-26T12:19:32.894Z,13.56
2023-04-26T12:20:32.885Z,13.54
2023-04-26T12:21:32.883Z,13.46
2023-04-26T12:22:32.844Z,13.27
2023-04-26T12:23:32.997Z,13.11
2023-04-26T12:24:32.828Z,12.93
2023-04-26T12:25:32.938Z,12.89
2023-04-26T12:26:32.816Z,13.17
2023-04-26T12:27:32.805Z,13.30
2023-04-26T12:28:32.846Z,13.44
2023-04-26T12:29:32.816Z,13.30
2023-04-26T12:30:32.771Z,13.27
2023-04-26T12:31:32.799Z,13.20
2023-04-26T12:32:32.817Z,13.17
2023-04-26T12:33:32.774Z,13.27
2023-04-26T12:34:32.752Z,13.41
2023-04-26T12:35:32.718Z,13.58
2023-04-26T12:36:32.729Z,13.59
2023-04-26T12:37:32.704Z,13.67
2023-04-26T12:38:32.683Z,13.71
2023-04-26T12:39:32.680Z,13.76
2023-04-26T12:40:32.769Z,13.73
2023-04-26T12:41:32.719Z,13.83
2023-04-26T12:42:32.655Z,13.87
2023-04-26T12:43:32.642Z,13.92
2023-04-26T12:44:32.624Z,14.02
2023-04-26T12:45:32.629Z,14.01
2023-04-26T12:46:32.657Z,13.94
2023-04-26T12:47:32.701Z,13.80
2023-04-26T12:48:32.589Z,13.74
2023-04-26T12:49:32.578Z,13.91
2023-04-26T12:50:32.569Z,14.19
2023-04-26T12:51:32.571Z,14.31
2023-04-26T12:52:32.540Z,14.50
2023-04-26T12:53:32.549Z,14.57
2023-04-26T12:54:32.531Z,14.60
2023-04-26T12:55:33.130Z,14.80
2023-04-26T12:56:32.510Z,14.98
2023-04-26T12:57:32.504Z,14.98
2023-04-26T12:58:32.485Z,14.72
2023-04-26T12:59:32.478Z,14.72
2023-04-26T13:00:32.469Z,14.86
2023-04-26T13:01:32.504Z,14.67
2023-04-26T13:02:32.621Z,14.60
2023-04-26T13:03:32.620Z,14.39
2023-04-26T13:04:32.756Z,14.53
2023-04-26T13:05:32.411Z,14.53